This is the latest recevied weather packets stored in our database for station/object F6JSP-13. If no packets are shown the sender has not sent any weather packets the latest 10 day(s).
| Time | Temp. | Humidity | Pressure | Rain* | Wind** | Luminosity | Snow |
|---|---|---|---|---|---|---|---|
| 1777732506 | 17.78° C | 85% | 1012.8 hPa | 0 mm | - | 341 W/m² | - |
| 1777731905 | 17.22° C | 86% | 1012.4 hPa | 0 mm | - | 372 W/m² | - |
| 1777731305 | 17.78° C | 84% | 1012.6 hPa | 0 mm | - | 486 W/m² | - |
| 1777730704 | 17.22° C | 84% | 1012.7 hPa | 0 mm | - | 415 W/m² | - |
| 1777727705 | 15.56° C | 89% | 1013.5 hPa | 0.25 mm | - | 130 W/m² | - |
| 1777726505 | 16.11° C | 83% | 1013.7 hPa | 0 mm | - | 62 W/m² | - |
| 1777725906 | 16.67° C | 80% | 1013.8 hPa | 0 mm | - | 67 W/m² | - |
| 1777724705 | 19.44° C | 67% | 1013.9 hPa | 0 mm | - | 94 W/m² | - |
| 1777720804 | 20° C | 67% | 1013.6 hPa | 0 mm | - | 810 W/m² | - |
| 1777719004 | 18.33° C | 69% | 1014.1 hPa | 0 mm | - | 159 W/m² | - |
| 1777718704 | 18.33° C | 70% | 1014 hPa | 0 mm | - | 131 W/m² | - |
| 1777718105 | 18.33° C | 71% | 1014.1 hPa | 0 mm | - | 603 W/m² | - |
| 1777716906 | 16.67° C | 84% | 1014.3 hPa | 0.76 mm | - | 196 W/m² | - |
| 1777716606 | 15.56° C | 83% | 1014.5 hPa | 0.76 mm | - | 232 W/m² | - |
| 1777715705 | 15.56° C | 88% | 1014.6 hPa | 0.76 mm | - | 91 W/m² | - |
| 1777715406 | 15° C | 85% | 1014.5 hPa | 0.76 mm | - | 57 W/m² | - |
| 1777714806 | 15° C | 84% | 1014.7 hPa | 0.76 mm | - | 57 W/m² | - |
| 1777714206 | 15° C | 84% | 1014.8 hPa | 0.76 mm | - | 35 W/m² | - |
| 1777713605 | 15.56° C | 76% | 1014.8 hPa | 0.76 mm | - | 71 W/m² | - |
| 1777709104 | 18.33° C | 56% | 1014.1 hPa | 0 mm | - | 393 W/m² | - |
| 1777706105 | 16.67° C | 71% | 1014.9 hPa | 0 mm | - | 270 W/m² | - |
| 1777704606 | 15.56° C | 79% | 1015 hPa | 0 mm | - | 164 W/m² | - |
| 1777702206 | 13.89° C | 94% | 1015.1 hPa | 0 mm | - | 68 W/m² | - |
| 1777701905 | 13.89° C | 94% | 1015.1 hPa | 0 mm | - | 61 W/m² | - |
| 1777697105 | 13.89° C | 97% | 1015.1 hPa | 0 mm | - | 0 W/m² | - |
* Rain latest hour (hover to see other rain measurements)
** Current wind speed in m/s (hover to see current wind gust speed)